Weather at Barcelona International Airport

Public forecast

Using degrees Celsius for public forecast. Weather courtesy of forecast.io.

Current aviation weather report (METAR) for Barcelona International Airport

Retrieved 2021/01/23 09:30 UTC (1 minute ago):

LEBL 230930Z 24019KT 9999 FEW030 12/03 Q1010 NOSIG

Aviation forecast (TAF) for Barcelona International Airport

Retrieved 2021/01/23 06:27 UTC (3 hours ago):

TAF LEBL 230500Z 2306/2406 26012KT 9999 FEW030 TX14/2312Z TN09/2306Z TEMPO 2317/2323 VRB05KT TEMPO 2318/2322 RA BKN060